createdAt,value
2018-09-20T00:00:06.572Z,14.40
2018-09-20T00:02:35.566Z,15.90
2018-09-20T00:05:04.593Z,22.70
2018-09-20T00:07:33.741Z,20.17
2018-09-20T00:10:03.191Z,23.73
2018-09-20T00:12:32.179Z,15.47
2018-09-20T00:15:01.188Z,28.70
2018-09-20T00:17:30.279Z,17.30
2018-09-20T00:19:59.263Z,24.33
2018-09-20T00:22:28.210Z,17.87
2018-09-20T00:24:57.244Z,19.50
2018-09-20T00:27:26.254Z,22.43
2018-09-20T00:29:55.405Z,28.90
2018-09-20T00:32:24.417Z,18.03
2018-09-20T00:34:53.438Z,29.70
2018-09-20T00:37:22.521Z,19.83
2018-09-20T00:39:51.507Z,24.87
2018-09-20T00:42:20.486Z,22.30
2018-09-20T00:44:49.495Z,19.13
2018-09-20T00:47:18.466Z,24.63
2018-09-20T00:49:47.479Z,28.67
2018-09-20T00:52:16.626Z,15.00
2018-09-20T00:54:45.780Z,23.13
2018-09-20T00:57:14.741Z,25.30
2018-09-20T00:59:44.806Z,19.67
2018-09-20T01:02:13.766Z,22.17
2018-09-20T01:04:42.740Z,27.47
2018-09-20T01:07:14.941Z,25.23
2018-09-20T01:09:43.914Z,17.17
2018-09-20T01:12:12.907Z,24.43
2018-09-20T01:14:41.956Z,17.37
2018-09-20T01:17:10.894Z,17.10
2018-09-20T01:19:39.932Z,20.60
2018-09-20T01:22:08.882Z,24.70
2018-09-20T01:24:37.877Z,21.30
2018-09-20T01:27:06.850Z,24.13
2018-09-20T01:29:35.935Z,21.43
2018-09-20T01:32:05.064Z,19.67
2018-09-20T01:34:34.117Z,16.27
2018-09-20T01:37:03.234Z,25.93
2018-09-20T01:39:32.281Z,18.40
2018-09-20T01:42:01.249Z,33.93
2018-09-20T01:44:30.222Z,23.43
2018-09-20T01:46:59.338Z,22.07
2018-09-20T01:49:28.364Z,54.17
2018-09-20T01:51:57.274Z,24.77
2018-09-20T01:54:26.378Z,27.80
2018-09-20T01:56:55.501Z,27.13
2018-09-20T01:59:24.498Z,22.43
2018-09-20T02:01:53.506Z,18.67
2018-09-20T02:04:22.442Z,24.23
2018-09-20T02:06:51.410Z,21.43
2018-09-20T02:09:20.518Z,20.30
2018-09-20T02:11:49.493Z,26.53
2018-09-20T02:14:18.453Z,24.40
2018-09-20T02:16:47.475Z,22.10
2018-09-20T02:19:16.576Z,18.10
2018-09-20T02:21:45.546Z,21.83
2018-09-20T02:24:14.527Z,17.70
2018-09-20T02:26:43.490Z,24.57
2018-09-20T02:29:12.470Z,23.80
2018-09-20T02:31:41.418Z,24.07
2018-09-20T02:34:10.359Z,18.63
2018-09-20T02:36:39.354Z,21.90
2018-09-20T02:39:08.930Z,21.00
2018-09-20T02:41:38.266Z,19.87
2018-09-20T02:44:07.210Z,29.10
2018-09-20T02:46:36.247Z,21.57
2018-09-20T02:49:05.255Z,29.10
2018-09-20T02:51:34.192Z,19.93
2018-09-20T02:54:03.119Z,28.97
2018-09-20T02:56:32.090Z,21.17
2018-09-20T02:59:01.187Z,25.97
2018-09-20T03:01:30.062Z,21.40
2018-09-20T03:03:58.962Z,19.33
2018-09-20T03:06:27.923Z,26.77
2018-09-20T03:08:56.852Z,24.40
2018-09-20T03:11:25.841Z,22.57
2018-09-20T03:13:54.843Z,28.73
2018-09-20T03:16:23.834Z,21.17
2018-09-20T03:18:52.826Z,24.17
2018-09-20T03:21:21.790Z,21.70
2018-09-20T03:23:50.734Z,31.23
2018-09-20T03:26:19.775Z,33.40
2018-09-20T03:28:48.858Z,29.63
2018-09-20T03:31:17.837Z,30.93
2018-09-20T03:33:46.961Z,22.70
2018-09-20T03:36:15.963Z,29.17
2018-09-20T03:38:44.996Z,31.33
2018-09-20T03:41:15.054Z,28.73
2018-09-20T03:43:44.031Z,23.33
2018-09-20T03:46:12.954Z,22.10
2018-09-20T03:48:42.018Z,15.80
2018-09-20T03:51:12.236Z,24.03
2018-09-20T03:53:41.178Z,21.77
2018-09-20T03:56:10.153Z,25.20
2018-09-20T03:58:40.264Z,22.17
2018-09-20T04:01:09.208Z,19.87
2018-09-20T04:03:38.184Z,33.10
2018-09-20T04:06:07.342Z,18.30
2018-09-20T04:08:36.442Z,22.40
2018-09-20T04:11:05.388Z,24.53
2018-09-20T04:13:34.343Z,19.50
2018-09-20T04:16:03.278Z,22.23
2018-09-20T04:18:32.279Z,32.90
2018-09-20T04:21:01.254Z,25.07
2018-09-20T04:23:30.202Z,24.47
2018-09-20T04:25:59.266Z,29.73
2018-09-20T04:28:28.357Z,24.73
2018-09-20T04:30:57.441Z,33.60
2018-09-20T04:33:26.413Z,19.77
2018-09-20T04:35:55.389Z,22.80
2018-09-20T04:38:24.393Z,20.90
2018-09-20T04:40:53.386Z,31.23
2018-09-20T04:43:22.314Z,21.20
2018-09-20T04:46:19.686Z,28.10
2018-09-20T04:48:48.840Z,24.53
2018-09-20T04:51:17.849Z,32.77
2018-09-20T04:53:46.974Z,32.00
2018-09-20T04:56:15.912Z,24.30
2018-09-20T04:58:44.932Z,27.53
2018-09-20T05:01:13.894Z,22.33
2018-09-20T05:03:42.854Z,23.40
2018-09-20T05:06:11.804Z,24.23
2018-09-20T05:08:40.810Z,22.80
2018-09-20T05:11:09.922Z,23.93
2018-09-20T05:13:39.205Z,23.03
2018-09-20T05:16:08.193Z,27.90
2018-09-20T05:18:37.204Z,26.33
2018-09-20T05:21:06.188Z,26.37
2018-09-20T05:23:35.169Z,29.53
2018-09-20T05:26:04.162Z,27.53
2018-09-20T05:28:33.150Z,17.17
2018-09-20T05:31:02.354Z,23.67
2018-09-20T05:33:31.351Z,25.97
2018-09-20T05:36:00.752Z,21.13
2018-09-20T05:38:29.766Z,30.50
2018-09-20T05:40:59.005Z,23.13
2018-09-20T05:43:28.189Z,35.00
2018-09-20T05:45:57.117Z,22.13
2018-09-20T05:48:26.099Z,22.30
2018-09-20T05:50:55.241Z,31.23
2018-09-20T05:53:24.292Z,24.67
2018-09-20T05:55:53.537Z,25.40
2018-09-20T05:58:22.518Z,32.10
2018-09-20T06:00:51.502Z,33.30
2018-09-20T06:03:20.650Z,25.03
2018-09-20T06:05:49.740Z,27.73
2018-09-20T06:08:18.870Z,32.40
2018-09-20T06:10:48.023Z,26.00
2018-09-20T06:13:17.138Z,24.70
2018-09-20T06:15:46.234Z,35.07
2018-09-20T06:18:15.306Z,22.43
2018-09-20T06:20:44.402Z,25.10
2018-09-20T06:23:13.519Z,26.93
2018-09-20T06:25:42.599Z,35.30
2018-09-20T06:28:11.686Z,24.17
2018-09-20T06:30:40.808Z,25.80
2018-09-20T06:33:09.756Z,23.23
2018-09-20T06:35:42.837Z,22.97
2018-09-20T06:38:11.875Z,18.50
2018-09-20T06:40:40.923Z,27.90
2018-09-20T06:43:09.911Z,25.27
2018-09-20T06:45:38.917Z,22.57
2018-09-20T06:48:07.882Z,26.63
2018-09-20T06:50:37.028Z,27.43
2018-09-20T06:53:06.298Z,20.70
2018-09-20T06:55:35.534Z,18.27
2018-09-20T06:58:05.626Z,20.20
2018-09-20T07:00:34.618Z,18.83
2018-09-20T07:03:03.700Z,29.63
2018-09-20T07:05:32.626Z,18.30
2018-09-20T07:08:01.693Z,23.23
2018-09-20T07:10:31.350Z,26.60
2018-09-20T07:13:01.401Z,24.73
2018-09-20T07:15:31.518Z,25.00
2018-09-20T07:18:00.642Z,28.10
2018-09-20T07:20:29.662Z,23.63
2018-09-20T07:22:58.654Z,20.87
2018-09-20T07:25:27.706Z,23.80
2018-09-20T07:27:56.741Z,18.07
2018-09-20T07:30:26.821Z,34.87
2018-09-20T07:32:55.906Z,31.50
2018-09-20T07:35:24.809Z,20.93
2018-09-20T07:37:53.857Z,29.97
2018-09-20T07:40:22.949Z,24.40
2018-09-20T07:42:54.492Z,17.83
2018-09-20T07:45:23.894Z,26.93
2018-09-20T07:47:52.984Z,17.00
2018-09-20T07:50:21.988Z,18.87
2018-09-20T07:52:50.962Z,18.03
2018-09-20T07:55:19.978Z,25.40
2018-09-20T07:57:49.039Z,16.77
2018-09-20T08:00:18.023Z,27.63
2018-09-20T08:02:47.208Z,14.67
2018-09-20T08:05:16.297Z,18.50
2018-09-20T08:07:45.250Z,17.57
2018-09-20T08:10:14.201Z,21.93
2018-09-20T08:12:43.287Z,16.20
2018-09-20T08:15:13.318Z,18.17
2018-09-20T08:17:42.521Z,24.10
2018-09-20T08:20:11.667Z,20.30
2018-09-20T08:22:40.630Z,18.97
2018-09-20T08:25:09.628Z,25.03
2018-09-20T08:27:38.659Z,17.67
2018-09-20T08:30:07.709Z,21.63
2018-09-20T08:32:36.703Z,14.17
2018-09-20T08:35:05.696Z,25.07
2018-09-20T08:37:34.767Z,17.30
2018-09-20T08:40:03.699Z,16.37
2018-09-20T08:42:32.649Z,14.83
2018-09-20T08:45:01.674Z,19.43
2018-09-20T08:47:30.663Z,13.03
2018-09-20T08:49:59.641Z,17.60
2018-09-20T08:52:28.650Z,13.57
2018-09-20T08:54:57.655Z,15.77
2018-09-20T08:57:26.615Z,22.77
2018-09-20T08:59:55.679Z,20.93
2018-09-20T09:02:24.814Z,16.13
2018-09-20T09:04:53.805Z,19.80
2018-09-20T09:07:22.829Z,23.20
2018-09-20T09:09:51.809Z,18.70
2018-09-20T09:12:20.798Z,19.00
2018-09-20T09:14:49.838Z,20.40
2018-09-20T09:17:19.038Z,15.43
2018-09-20T09:19:47.944Z,15.17
2018-09-20T09:22:17.090Z,14.33
2018-09-20T09:24:47.130Z,13.03
2018-09-20T09:27:16.386Z,17.90
2018-09-20T09:29:45.374Z,9.00
2018-09-20T09:32:14.390Z,14.70
2018-09-20T09:34:43.521Z,16.70
2018-09-20T09:37:12.686Z,10.30
2018-09-20T09:39:41.725Z,13.93
2018-09-20T09:42:10.801Z,14.87
2018-09-20T09:44:39.701Z,14.63
2018-09-20T09:47:08.862Z,18.20
2018-09-20T09:49:37.818Z,10.03
2018-09-20T09:52:06.974Z,10.03
2018-09-20T09:54:36.154Z,13.83
2018-09-20T09:57:05.090Z,9.37
2018-09-20T09:59:34.071Z,19.13
2018-09-20T10:02:03.217Z,12.73
2018-09-20T10:04:32.223Z,12.43
2018-09-20T10:07:01.403Z,15.00
2018-09-20T10:09:30.550Z,18.43
2018-09-20T10:11:59.496Z,12.30
2018-09-20T10:14:28.529Z,8.37
2018-09-20T10:16:57.502Z,11.70
2018-09-20T10:19:26.462Z,12.80
2018-09-20T10:21:55.554Z,8.97
2018-09-20T10:24:24.623Z,19.03
2018-09-20T10:26:53.732Z,18.20
2018-09-20T10:29:22.744Z,8.40
2018-09-20T10:31:51.906Z,18.67
2018-09-20T10:34:21.016Z,11.00
2018-09-20T10:36:49.978Z,17.30
2018-09-20T10:39:18.918Z,10.70
2018-09-20T10:41:47.902Z,14.87
2018-09-20T10:44:16.965Z,10.97
2018-09-20T10:46:45.943Z,14.17
2018-09-20T10:49:14.906Z,9.00
2018-09-20T10:51:43.922Z,6.10
2018-09-20T10:54:13.056Z,15.87
2018-09-20T10:56:42.012Z,7.97
2018-09-20T10:59:10.971Z,14.33
2018-09-20T11:01:40.146Z,25.73
2018-09-20T11:04:09.274Z,11.27
2018-09-20T11:06:38.307Z,15.27
2018-09-20T11:09:08.617Z,11.40
2018-09-20T11:11:37.646Z,9.13
2018-09-20T11:14:06.806Z,11.73
2018-09-20T11:16:36.402Z,10.30
2018-09-20T11:19:05.682Z,8.10
2018-09-20T11:21:34.914Z,11.60
2018-09-20T11:24:04.092Z,12.60
2018-09-20T11:26:33.115Z,8.13
2018-09-20T11:29:02.054Z,7.17
2018-09-20T11:31:31.214Z,10.30
2018-09-20T11:34:00.173Z,13.20
2018-09-20T11:36:29.114Z,8.00
2018-09-20T11:38:58.069Z,15.40
2018-09-20T11:41:27.257Z,8.70
2018-09-20T11:43:56.255Z,12.80
2018-09-20T11:46:25.331Z,13.00
2018-09-20T11:48:54.466Z,11.60
2018-09-20T11:51:23.417Z,13.57
2018-09-20T11:53:52.511Z,12.30
2018-09-20T11:56:21.578Z,8.27
2018-09-20T11:58:50.594Z,14.10
2018-09-20T12:01:19.727Z,7.20
2018-09-20T12:03:48.748Z,11.53
2018-09-20T12:06:17.698Z,8.33
2018-09-20T12:08:46.781Z,17.83
2018-09-20T12:11:15.791Z,11.00
2018-09-20T12:13:44.779Z,9.23
2018-09-20T12:16:13.842Z,15.63
2018-09-20T12:18:42.948Z,21.17
2018-09-20T12:21:12.054Z,7.63
2018-09-20T12:23:41.290Z,13.27
2018-09-20T12:26:10.335Z,11.60
2018-09-20T12:28:39.483Z,18.13
2018-09-20T12:31:09.543Z,13.83
2018-09-20T12:33:38.497Z,7.67
2018-09-20T12:36:07.753Z,16.20
2018-09-20T12:38:36.879Z,11.47
2018-09-20T12:41:06.306Z,10.37
2018-09-20T12:43:35.277Z,12.63
2018-09-20T12:46:04.315Z,10.60
2018-09-20T12:48:33.401Z,10.10
2018-09-20T12:51:02.388Z,11.57
2018-09-20T12:53:31.343Z,16.40
2018-09-20T12:56:01.395Z,10.97
2018-09-20T12:58:35.832Z,8.03
2018-09-20T13:01:04.810Z,5.57
2018-09-20T13:03:33.867Z,13.00
2018-09-20T13:06:02.977Z,16.40
2018-09-20T13:08:32.170Z,7.13
2018-09-20T13:11:01.209Z,12.33
2018-09-20T13:13:30.156Z,10.23
2018-09-20T13:15:59.214Z,23.80
2018-09-20T13:18:28.336Z,12.43
2018-09-20T13:20:57.437Z,11.63
2018-09-20T13:23:26.555Z,12.53
2018-09-20T13:25:55.547Z,15.63
2018-09-20T13:28:24.558Z,11.77
2018-09-20T13:30:53.528Z,13.20
2018-09-20T13:33:22.462Z,16.93
2018-09-20T13:35:51.611Z,8.73
2018-09-20T13:38:20.639Z,13.73
2018-09-20T13:40:49.722Z,9.90
2018-09-20T13:43:18.758Z,8.70
2018-09-20T13:45:47.769Z,11.80
2018-09-20T13:48:16.862Z,14.23
2018-09-20T13:50:45.957Z,11.83
2018-09-20T13:53:14.933Z,14.83
2018-09-20T13:55:43.898Z,10.27
2018-09-20T13:58:12.882Z,11.43
2018-09-20T14:00:41.843Z,12.90
2018-09-20T14:03:10.865Z,10.77
2018-09-20T14:05:40.598Z,15.83
2018-09-20T14:08:09.526Z,10.63
2018-09-20T14:10:38.628Z,8.93
2018-09-20T14:13:07.728Z,9.03
2018-09-20T14:15:36.976Z,14.13
2018-09-20T14:18:05.966Z,11.70
2018-09-20T14:20:34.905Z,7.83
2018-09-20T14:23:05.017Z,8.63
2018-09-20T14:25:34.375Z,13.87
2018-09-20T14:28:03.654Z,9.03
2018-09-20T14:30:33.062Z,10.30
2018-09-20T14:33:02.105Z,9.13
2018-09-20T14:35:31.202Z,14.60
2018-09-20T14:38:00.279Z,17.70
2018-09-20T14:40:29.398Z,11.47
2018-09-20T14:42:58.513Z,11.07
2018-09-20T14:45:27.572Z,13.00
2018-09-20T14:47:56.894Z,12.10
2018-09-20T14:50:25.949Z,8.43
2018-09-20T14:52:54.923Z,12.50
2018-09-20T14:55:24.022Z,6.47
2018-09-20T14:57:53.050Z,11.57
2018-09-20T15:00:22.065Z,11.70
2018-09-20T15:02:51.214Z,9.27
2018-09-20T15:05:20.218Z,10.53
2018-09-20T15:07:49.206Z,8.83
2018-09-20T15:10:18.223Z,12.30
2018-09-20T15:12:47.383Z,7.33
2018-09-20T15:15:16.444Z,5.87
2018-09-20T15:17:45.478Z,10.33
2018-09-20T15:20:14.409Z,5.80
2018-09-20T15:22:43.577Z,9.37
2018-09-20T15:25:12.575Z,10.63
2018-09-20T15:27:41.645Z,8.87
2018-09-20T15:30:10.662Z,12.60
2018-09-20T15:32:39.871Z,7.73
2018-09-20T15:35:08.932Z,11.73
2018-09-20T15:37:38.052Z,18.93
2018-09-20T15:40:07.289Z,16.33
2018-09-20T15:42:36.334Z,11.10
2018-09-20T15:45:05.402Z,8.10
2018-09-20T15:47:34.790Z,9.53
2018-09-20T15:50:03.903Z,7.43
2018-09-20T15:52:32.881Z,9.00
2018-09-20T15:55:01.835Z,14.03
2018-09-20T15:57:31.011Z,14.93
2018-09-20T16:00:00.003Z,9.70
2018-09-20T16:02:28.997Z,14.00
2018-09-20T16:04:58.286Z,9.53
2018-09-20T16:07:27.334Z,8.83
2018-09-20T16:09:56.358Z,13.87
2018-09-20T16:12:25.321Z,9.67
2018-09-20T16:14:54.253Z,8.57
2018-09-20T16:17:23.207Z,11.50
2018-09-20T16:19:52.366Z,10.13
2018-09-20T16:22:21.346Z,13.67
2018-09-20T16:24:50.378Z,17.60
2018-09-20T16:27:19.334Z,11.23
2018-09-20T16:30:03.636Z,18.10
2018-09-20T16:33:44.611Z,12.77
2018-09-20T16:36:34.997Z,8.13
2018-09-20T16:39:11.366Z,7.73
2018-09-20T16:41:43.787Z,9.33
2018-09-20T16:44:12.826Z,6.33
2018-09-20T16:46:41.786Z,9.07
2018-09-20T16:49:10.769Z,8.27
2018-09-20T16:51:40.067Z,9.53
2018-09-20T16:54:09.095Z,13.13
2018-09-20T16:56:38.071Z,14.03
2018-09-20T16:59:07.351Z,12.23
2018-09-20T17:01:36.424Z,10.53
2018-09-20T17:04:05.367Z,5.93
2018-09-20T17:06:34.366Z,8.37
2018-09-20T17:09:04.818Z,14.33
2018-09-20T17:11:33.953Z,10.43
2018-09-20T17:14:03.098Z,12.07
2018-09-20T17:19:49.026Z,8.87
2018-09-20T17:22:18.968Z,11.60
2018-09-20T17:24:49.389Z,10.83
2018-09-20T17:27:23.331Z,11.67
2018-09-20T17:29:57.380Z,13.63
2018-09-20T17:32:28.088Z,12.03
2018-09-20T17:34:57.422Z,10.40
2018-09-20T17:37:28.613Z,16.33
2018-09-20T17:39:58.771Z,7.90
2018-09-20T17:42:31.159Z,7.67
2018-09-20T17:45:04.182Z,21.63
2018-09-20T17:47:33.952Z,10.10
2018-09-20T17:50:18.503Z,19.00
2018-09-20T17:52:48.830Z,8.37
2018-09-20T17:55:18.148Z,19.17
2018-09-20T17:57:49.942Z,11.43
2018-09-20T18:00:24.303Z,11.47
2018-09-20T18:02:54.872Z,12.40
2018-09-20T18:05:26.530Z,14.07
2018-09-20T18:07:58.981Z,8.60
2018-09-20T18:10:28.367Z,17.03
2018-09-20T18:12:57.368Z,12.40
2018-09-20T18:15:27.411Z,20.50
2018-09-20T18:17:57.401Z,17.43
2018-09-20T18:20:28.492Z,8.70
2018-09-20T18:22:57.698Z,22.90
2018-09-20T18:25:27.727Z,13.23
2018-09-20T18:27:57.402Z,18.23
2018-09-20T18:30:27.179Z,12.50
2018-09-20T18:32:58.735Z,14.80
2018-09-20T18:35:30.670Z,12.33
2018-09-20T18:37:59.902Z,9.33
2018-09-20T18:40:30.858Z,10.53
2018-09-20T18:43:01.728Z,15.87
2018-09-20T18:45:34.401Z,9.20
2018-09-20T18:48:06.202Z,9.27
2018-09-20T18:50:35.610Z,9.13
2018-09-20T18:53:07.141Z,13.17
2018-09-20T18:55:38.859Z,16.40
2018-09-20T18:58:10.422Z,14.17
2018-09-20T19:00:42.233Z,15.70
2018-09-20T19:03:13.873Z,13.47
2018-09-20T19:05:43.584Z,9.97
2018-09-20T19:08:14.382Z,17.40
2018-09-20T19:10:43.431Z,11.53
2018-09-20T19:13:14.714Z,8.30
2018-09-20T19:15:44.337Z,8.93
2018-09-20T19:18:15.217Z,11.87
2018-09-20T19:20:47.987Z,10.47
2018-09-20T19:23:19.905Z,16.37
2018-09-20T19:28:40.348Z,11.30
2018-09-20T19:31:09.801Z,14.80
2018-09-20T19:33:39.759Z,17.23
2018-09-20T19:36:11.503Z,13.37
2018-09-20T19:38:43.453Z,14.27
2018-09-20T19:41:15.325Z,8.50
2018-09-20T19:43:47.312Z,8.70
2018-09-20T19:46:16.551Z,10.93
2018-09-20T19:48:46.570Z,9.90
2018-09-20T19:51:15.654Z,6.00
2018-09-20T19:53:46.804Z,7.17
2018-09-20T19:56:16.222Z,10.00
2018-09-20T19:58:46.502Z,10.33
2018-09-20T20:01:15.740Z,8.90
2018-09-20T20:03:45.098Z,14.53
2018-09-20T20:06:14.443Z,13.70
2018-09-20T20:08:46.193Z,8.30
2018-09-20T20:11:15.275Z,11.70
2018-09-20T20:13:44.279Z,13.13
2018-09-20T20:16:16.314Z,10.83
2018-09-20T20:18:48.355Z,13.40
2018-09-20T20:21:19.052Z,8.60
2018-09-20T20:23:49.449Z,13.43
2018-09-20T20:26:18.435Z,10.53
2018-09-20T20:28:50.101Z,10.63
2018-09-20T20:31:20.825Z,7.10
2018-09-20T20:33:50.041Z,5.50
2018-09-20T20:36:19.147Z,10.90
2018-09-20T20:38:50.475Z,5.17
2018-09-20T20:41:21.655Z,11.87
2018-09-20T20:43:50.752Z,8.13
2018-09-20T20:46:20.837Z,8.43
2018-09-20T20:48:51.375Z,21.13
2018-09-20T20:51:22.134Z,8.83
2018-09-20T20:53:52.467Z,8.53
2018-09-20T20:56:23.545Z,9.50
2018-09-20T20:58:52.802Z,8.13
2018-09-20T21:01:22.208Z,10.70
2018-09-20T21:03:51.468Z,8.73
2018-09-20T21:06:22.067Z,11.20
2018-09-20T21:08:52.722Z,14.30
2018-09-20T21:11:22.077Z,8.30
2018-09-20T21:13:53.998Z,12.03
2018-09-20T21:16:26.480Z,11.47
2018-09-20T21:18:55.488Z,6.40
2018-09-20T21:21:25.429Z,8.50
2018-09-20T21:23:56.076Z,11.93
2018-09-20T21:26:25.529Z,10.87
2018-09-20T21:28:56.532Z,16.70
2018-09-20T21:31:28.430Z,11.10
2018-09-20T21:33:59.916Z,15.43
2018-09-20T21:36:28.920Z,9.47
2018-09-20T21:38:58.000Z,10.23
2018-09-20T21:41:28.913Z,13.93
2018-09-20T21:43:57.975Z,9.10
2018-09-20T21:46:30.923Z,28.13
2018-09-20T21:49:02.120Z,13.37
2018-09-20T21:51:31.129Z,13.47
2018-09-20T21:54:00.281Z,17.10
2018-09-20T21:56:31.702Z,6.13
2018-09-20T21:59:00.807Z,13.10
2018-09-20T22:01:38.163Z,11.67
2018-09-20T22:04:07.201Z,13.93
2018-09-20T22:06:36.350Z,13.73
2018-09-20T22:09:08.385Z,12.50
2018-09-20T22:11:37.942Z,11.63
2018-09-20T22:14:07.027Z,11.57
2018-09-20T22:16:36.242Z,16.57
2018-09-20T22:19:07.238Z,11.90
2018-09-20T22:21:38.412Z,14.87
2018-09-20T22:24:09.058Z,6.87
2018-09-20T22:26:41.001Z,10.07
2018-09-20T22:29:14.019Z,7.70
2018-09-20T22:31:43.153Z,15.80
2018-09-20T22:34:12.291Z,10.33
2018-09-20T22:36:43.111Z,11.97
2018-09-20T22:39:12.231Z,12.27
2018-09-20T22:41:44.334Z,11.57
2018-09-20T22:44:15.074Z,17.47
2018-09-20T22:46:48.435Z,14.13
2018-09-20T22:49:19.459Z,15.00
2018-09-20T22:51:49.738Z,11.47
2018-09-20T22:54:21.064Z,15.53
2018-09-20T22:56:50.769Z,21.43
2018-09-20T22:59:19.852Z,15.83
2018-09-20T23:01:51.958Z,20.03
2018-09-20T23:04:21.046Z,14.93
2018-09-20T23:06:52.850Z,14.40
2018-09-20T23:09:22.871Z,19.57
2018-09-20T23:11:54.609Z,18.33
2018-09-20T23:14:23.950Z,14.70
2018-09-20T23:16:55.002Z,13.07
2018-09-20T23:19:25.338Z,30.53
2018-09-20T23:21:54.637Z,18.97
2018-09-20T23:24:23.832Z,17.73
2018-09-20T23:26:53.028Z,15.10
2018-09-20T23:29:24.392Z,15.23
2018-09-20T23:31:55.376Z,20.73
2018-09-20T23:34:26.813Z,13.37
2018-09-20T23:36:57.761Z,19.53
2018-09-20T23:39:28.733Z,15.30
2018-09-20T23:42:00.182Z,11.47
2018-09-20T23:44:29.401Z,17.67
2018-09-20T23:46:58.915Z,16.00
2018-09-20T23:49:30.498Z,20.20
2018-09-20T23:52:01.238Z,11.93
2018-09-20T23:54:31.299Z,13.50
2018-09-20T23:57:01.120Z,15.10
2018-09-20T23:59:30.352Z,27.73
